createdAt,value
2019-03-25T00:02:28.702Z,61.21
2019-03-25T00:04:59.342Z,60.14
2019-03-25T00:07:27.064Z,60.14
2019-03-25T00:09:54.818Z,59.60
2019-03-25T00:12:22.406Z,59.39
2019-03-25T00:14:50.268Z,59.73
2019-03-25T00:17:17.855Z,60.49
2019-03-25T00:19:46.064Z,60.14
2019-03-25T00:22:14.931Z,60.62
2019-03-25T00:24:42.520Z,60.48
2019-03-25T00:27:10.666Z,60.80
2019-03-25T00:29:38.469Z,60.99
2019-03-25T00:32:06.235Z,62.19
2019-03-25T00:34:38.485Z,62.42
2019-03-25T00:37:07.915Z,62.52
2019-03-25T00:39:35.507Z,62.47
2019-03-25T00:42:03.311Z,61.46
2019-03-25T00:44:33.658Z,61.14
2019-03-25T00:47:01.657Z,61.99
2019-03-25T00:49:31.287Z,61.26
2019-03-25T00:51:58.861Z,61.70
2019-03-25T00:54:26.714Z,61.81
2019-03-25T00:56:57.552Z,62.00
2019-03-25T00:59:25.371Z,62.11
2019-03-25T01:01:53.592Z,62.80
2019-03-25T01:04:22.444Z,62.24
2019-03-25T01:06:50.102Z,62.65
2019-03-25T01:09:18.022Z,63.11
2019-03-25T01:11:49.257Z,62.72
2019-03-25T01:14:15.811Z,62.77
2019-03-25T01:16:43.669Z,62.59
2019-03-25T01:19:12.649Z,62.28
2019-03-25T01:21:40.741Z,62.80
2019-03-25T01:24:08.810Z,62.02
2019-03-25T01:26:36.472Z,61.34
2019-03-25T01:29:06.111Z,61.05
2019-03-25T01:31:33.867Z,61.58
2019-03-25T01:34:01.881Z,61.61
2019-03-25T01:36:29.453Z,61.48
2019-03-25T01:38:57.094Z,61.79
2019-03-25T01:41:24.802Z,61.74
2019-03-25T01:43:54.351Z,61.74
2019-03-25T01:46:22.915Z,62.51
2019-03-25T01:48:50.650Z,63.13
2019-03-25T01:51:18.274Z,62.65
2019-03-25T01:53:46.406Z,62.36
2019-03-25T01:56:14.244Z,61.96
2019-03-25T01:58:42.141Z,61.80
2019-03-25T02:01:09.708Z,61.79
2019-03-25T02:03:37.357Z,62.12
2019-03-25T02:06:04.954Z,62.14
2019-03-25T02:08:33.020Z,62.76
2019-03-25T02:11:00.724Z,63.43
2019-03-25T02:13:28.278Z,63.65
2019-03-25T02:15:56.059Z,63.07
2019-03-25T02:18:23.747Z,63.10
2019-03-25T02:20:51.414Z,63.68
2019-03-25T02:23:19.408Z,63.23
2019-03-25T02:25:47.039Z,63.63
2019-03-25T02:28:14.609Z,64.51
2019-03-25T02:30:42.180Z,63.97
2019-03-25T02:33:11.130Z,63.58
2019-03-25T02:35:38.707Z,63.99
2019-03-25T02:38:06.290Z,63.66
2019-03-25T02:40:34.074Z,63.77
2019-03-25T02:43:01.813Z,63.14
2019-03-25T02:45:29.403Z,63.53
2019-03-25T02:47:57.667Z,62.76
2019-03-25T02:50:25.475Z,62.98
2019-03-25T02:52:54.317Z,62.76
2019-03-25T02:55:21.946Z,62.80
2019-03-25T02:57:49.620Z,63.14
2019-03-25T03:00:32.712Z,63.36
2019-03-25T03:03:00.560Z,63.58
2019-03-25T03:05:28.136Z,63.91
2019-03-25T03:07:55.894Z,63.99
2019-03-25T03:10:23.579Z,63.77
2019-03-25T03:12:51.259Z,63.50
2019-03-25T03:15:19.365Z,63.00
2019-03-25T03:17:47.362Z,63.45
2019-03-25T03:20:14.931Z,63.66
2019-03-25T03:22:42.597Z,63.72
2019-03-25T03:25:10.740Z,63.93
2019-03-25T03:27:38.410Z,63.99
2019-03-25T03:30:06.696Z,63.36
2019-03-25T03:32:34.904Z,63.44
2019-03-25T03:35:02.513Z,63.28
2019-03-25T03:37:30.225Z,63.19
2019-03-25T03:39:58.175Z,62.83
2019-03-25T03:42:25.741Z,62.72
2019-03-25T03:44:53.392Z,62.17
2019-03-25T03:47:20.975Z,61.86
2019-03-25T03:49:50.386Z,61.63
2019-03-25T03:52:18.003Z,62.06
2019-03-25T03:54:46.686Z,62.62
2019-03-25T03:57:14.555Z,62.91
2019-03-25T03:59:42.923Z,63.30
2019-03-25T04:02:10.497Z,62.58
2019-03-25T04:04:40.257Z,62.12
2019-03-25T04:07:08.198Z,61.52
2019-03-25T04:09:36.334Z,61.07
2019-03-25T04:12:04.501Z,60.77
2019-03-25T04:14:32.122Z,60.30
2019-03-25T04:17:00.166Z,59.96
2019-03-25T04:19:27.751Z,59.77
2019-03-25T04:21:55.571Z,59.31
2019-03-25T04:24:23.718Z,58.65
2019-03-25T04:26:51.349Z,58.65
2019-03-25T04:29:19.091Z,58.56
2019-03-25T04:31:47.227Z,58.05
2019-03-25T04:34:15.055Z,58.36
2019-03-25T04:36:42.820Z,58.86
2019-03-25T04:39:10.965Z,58.81
2019-03-25T04:41:38.881Z,58.90
2019-03-25T04:44:06.526Z,58.77
2019-03-25T04:46:34.530Z,59.19
2019-03-25T04:49:02.114Z,60.24
2019-03-25T04:51:29.711Z,61.14
2019-03-25T04:53:58.294Z,61.87
2019-03-25T04:56:26.301Z,62.39
2019-03-25T04:58:54.029Z,63.00
2019-03-25T05:01:21.814Z,63.41
2019-03-25T05:03:49.867Z,63.44
2019-03-25T05:06:17.493Z,63.61
2019-03-25T05:08:45.160Z,63.70
2019-03-25T05:11:12.848Z,63.80
2019-03-25T05:13:40.748Z,63.93
2019-03-25T05:16:08.371Z,64.03
2019-03-25T05:18:36.597Z,63.83
2019-03-25T05:21:04.233Z,63.65
2019-03-25T05:23:31.982Z,63.34
2019-03-25T05:25:59.576Z,62.38
2019-03-25T05:28:27.861Z,61.24
2019-03-25T05:30:55.479Z,60.51
2019-03-25T05:33:23.524Z,59.92
2019-03-25T05:35:52.381Z,59.80
2019-03-25T05:38:19.958Z,59.79
2019-03-25T05:40:48.129Z,59.58
2019-03-25T05:43:16.863Z,59.88
2019-03-25T05:45:44.477Z,60.19
2019-03-25T05:48:12.359Z,60.59
2019-03-25T05:50:40.500Z,60.47
2019-03-25T05:53:08.091Z,60.25
2019-03-25T05:55:37.750Z,60.13
2019-03-25T05:58:06.882Z,60.00
2019-03-25T06:00:35.798Z,59.87
2019-03-25T06:03:03.423Z,59.54
2019-03-25T06:05:32.192Z,59.47
2019-03-25T06:07:59.796Z,59.02
2019-03-25T06:10:27.649Z,59.22
2019-03-25T06:12:55.326Z,59.37
2019-03-25T06:15:23.976Z,60.09
2019-03-25T06:17:52.027Z,63.60
2019-03-25T06:20:19.684Z,64.99
2019-03-25T06:22:47.272Z,65.46
2019-03-25T06:25:15.376Z,64.99
2019-03-25T06:27:43.304Z,65.01
2019-03-25T06:30:11.437Z,64.96
2019-03-25T06:32:39.262Z,65.16
2019-03-25T06:35:08.909Z,64.64
2019-03-25T06:37:39.253Z,64.90
2019-03-25T06:40:08.806Z,63.59
2019-03-25T06:42:36.647Z,62.18
2019-03-25T06:45:07.265Z,61.13
2019-03-25T06:47:35.163Z,61.53
2019-03-25T06:50:03.317Z,61.42
2019-03-25T06:52:30.902Z,62.03
2019-03-25T06:54:59.138Z,62.29
2019-03-25T06:57:26.717Z,62.66
2019-03-25T06:59:56.718Z,62.66
2019-03-25T07:02:24.559Z,62.32
2019-03-25T07:04:52.214Z,62.38
2019-03-25T07:07:21.249Z,61.95
2019-03-25T07:09:48.856Z,61.71
2019-03-25T07:12:17.042Z,61.30
2019-03-25T07:14:44.859Z,60.88
2019-03-25T07:17:12.486Z,60.50
2019-03-25T07:19:40.392Z,60.49
2019-03-25T07:22:07.969Z,59.53
2019-03-25T07:24:35.817Z,59.94
2019-03-25T07:27:07.209Z,59.43
2019-03-25T07:29:35.466Z,59.15
2019-03-25T07:32:05.350Z,59.75
2019-03-25T07:34:33.166Z,58.99
2019-03-25T07:37:00.859Z,58.32
2019-03-25T07:39:28.799Z,58.46
2019-03-25T07:41:57.081Z,58.19
2019-03-25T07:44:24.788Z,58.40
2019-03-25T07:46:52.422Z,58.27
2019-03-25T07:49:20.439Z,59.67
2019-03-25T07:51:48.511Z,60.41
2019-03-25T07:54:16.095Z,61.14
2019-03-25T07:56:44.242Z,62.06
2019-03-25T07:59:12.264Z,62.76
2019-03-25T08:01:40.825Z,61.98
2019-03-25T08:04:10.391Z,62.20
2019-03-25T08:06:38.390Z,63.31
2019-03-25T08:09:07.309Z,63.63
2019-03-25T08:11:35.332Z,64.26
2019-03-25T08:14:03.750Z,64.05
2019-03-25T08:16:31.662Z,65.12
2019-03-25T08:18:59.351Z,64.85
2019-03-25T08:21:27.106Z,63.42
2019-03-25T08:23:55.130Z,63.57
2019-03-25T08:26:23.121Z,64.09
2019-03-25T08:28:51.094Z,64.41
2019-03-25T08:31:19.061Z,64.54
2019-03-25T08:33:47.562Z,63.35
2019-03-25T08:36:15.492Z,61.46
2019-03-25T08:38:43.049Z,60.90
2019-03-25T08:41:10.714Z,61.25
2019-03-25T08:43:38.814Z,60.51
2019-03-25T08:46:06.466Z,60.93
2019-03-25T08:48:35.098Z,60.70
2019-03-25T08:51:03.061Z,60.74
2019-03-25T08:53:30.636Z,60.55
2019-03-25T08:55:58.552Z,60.54
2019-03-25T08:58:26.207Z,59.98
2019-03-25T09:00:54.141Z,60.76
2019-03-25T09:03:22.726Z,59.41
2019-03-25T09:05:50.350Z,58.67
2019-03-25T09:08:17.939Z,58.24
2019-03-25T09:10:47.000Z,58.62
2019-03-25T09:13:19.625Z,58.58
2019-03-25T09:15:47.226Z,58.56
2019-03-25T09:18:15.219Z,57.85
2019-03-25T09:20:43.447Z,57.37
2019-03-25T09:23:11.364Z,57.87
2019-03-25T09:25:41.681Z,56.58
2019-03-25T09:28:09.450Z,56.93
2019-03-25T09:31:07.089Z,55.86
2019-03-25T09:33:35.769Z,55.56
2019-03-25T09:36:03.384Z,54.58
2019-03-25T09:38:31.104Z,54.55
2019-03-25T09:41:00.254Z,52.99
2019-03-25T09:43:27.927Z,52.99
2019-03-25T09:45:55.745Z,51.30
2019-03-25T09:48:23.862Z,51.16
2019-03-25T09:50:51.627Z,49.61
2019-03-25T09:53:20.540Z,48.63
2019-03-25T09:55:48.291Z,49.38
2019-03-25T09:58:15.851Z,51.01
2019-03-25T10:00:43.473Z,54.55
2019-03-25T10:03:12.581Z,53.52
2019-03-25T10:05:40.212Z,51.91
2019-03-25T10:08:08.154Z,52.06
2019-03-25T10:10:35.971Z,52.04
2019-03-25T10:13:03.795Z,52.54
2019-03-25T10:15:31.763Z,48.63
2019-03-25T10:17:59.450Z,49.02
2019-03-25T10:20:27.041Z,45.87
2019-03-25T10:22:54.759Z,44.11
2019-03-25T10:25:22.698Z,44.89
2019-03-25T10:27:50.395Z,44.73
2019-03-25T10:30:18.206Z,45.14
2019-03-25T10:32:50.018Z,45.89
2019-03-25T10:35:17.816Z,46.98
2019-03-25T10:37:46.922Z,44.40
2019-03-25T10:40:20.332Z,43.85
2019-03-25T10:43:04.341Z,45.27
2019-03-25T10:45:31.986Z,44.46
2019-03-25T10:47:59.595Z,45.15
2019-03-25T10:50:30.113Z,45.81
2019-03-25T10:52:57.738Z,45.96
2019-03-25T10:55:25.347Z,45.09
2019-03-25T10:57:53.257Z,43.96
2019-03-25T11:00:22.071Z,42.61
2019-03-25T11:02:49.785Z,43.51
2019-03-25T11:05:17.662Z,40.24
2019-03-25T11:07:45.785Z,39.05
2019-03-25T11:10:13.967Z,40.87
2019-03-25T11:12:41.547Z,41.94
2019-03-25T11:15:09.354Z,39.69
2019-03-25T11:17:36.942Z,38.06
2019-03-25T11:20:04.921Z,39.48
2019-03-25T11:22:32.837Z,37.26
2019-03-25T11:25:00.418Z,40.67
2019-03-25T11:27:29.663Z,40.88
2019-03-25T11:29:57.652Z,41.04
2019-03-25T11:32:25.224Z,40.64
2019-03-25T11:34:54.408Z,40.46
2019-03-25T11:37:22.999Z,40.17
2019-03-25T11:39:51.686Z,42.24
2019-03-25T11:42:20.439Z,42.51
2019-03-25T11:44:48.451Z,41.98
2019-03-25T11:47:16.135Z,41.62
2019-03-25T11:49:44.625Z,41.06
2019-03-25T11:52:12.561Z,42.11
2019-03-25T11:54:41.818Z,41.78
2019-03-25T11:57:09.487Z,43.41
2019-03-25T11:59:37.081Z,44.14
2019-03-25T12:02:06.314Z,45.42
2019-03-25T12:04:36.176Z,45.22
2019-03-25T12:07:03.807Z,46.29
2019-03-25T12:09:32.496Z,48.84
2019-03-25T12:12:00.740Z,48.40
2019-03-25T12:14:28.504Z,49.08
2019-03-25T12:16:56.085Z,50.48
2019-03-25T12:19:23.767Z,53.42
2019-03-25T12:22:01.751Z,56.67
2019-03-25T12:24:39.251Z,56.92
2019-03-25T12:28:35.817Z,50.04
2019-03-25T12:31:45.082Z,46.02
2019-03-25T12:34:13.243Z,51.98
2019-03-25T12:36:40.888Z,54.52
2019-03-25T12:39:08.464Z,54.76
2019-03-25T12:41:36.123Z,55.04
2019-03-25T12:44:03.897Z,54.43
2019-03-25T12:46:31.516Z,53.85
2019-03-25T12:48:59.606Z,54.77
2019-03-25T12:51:27.217Z,57.22
2019-03-25T12:53:54.907Z,58.76
2019-03-25T12:56:22.764Z,58.76
2019-03-25T12:58:50.359Z,57.61
2019-03-25T13:01:17.972Z,50.26
2019-03-25T13:03:46.131Z,45.63
2019-03-25T13:06:14.940Z,46.10
2019-03-25T13:08:43.875Z,43.97
2019-03-25T13:11:11.540Z,43.20
2019-03-25T13:13:39.339Z,39.34
2019-03-25T13:16:06.959Z,44.25
2019-03-25T13:18:35.997Z,44.78
2019-03-25T13:21:03.588Z,43.07
2019-03-25T13:23:31.188Z,40.80
2019-03-25T13:25:59.195Z,41.57
2019-03-25T13:28:27.125Z,43.21
2019-03-25T13:30:54.747Z,50.30
2019-03-25T13:33:22.831Z,51.01
2019-03-25T13:35:50.469Z,52.05
2019-03-25T13:38:18.045Z,53.49
2019-03-25T13:40:45.699Z,53.84
2019-03-25T13:43:13.741Z,58.85
2019-03-25T13:45:41.943Z,61.09
2019-03-25T13:48:09.635Z,59.60
2019-03-25T13:50:37.474Z,60.01
2019-03-25T13:53:05.535Z,56.87
2019-03-25T13:55:33.514Z,55.63
2019-03-25T13:58:01.251Z,56.45
2019-03-25T14:00:40.110Z,56.82
2019-03-25T14:03:09.714Z,54.13
2019-03-25T14:05:38.431Z,47.95
2019-03-25T14:08:06.580Z,48.15
2019-03-25T14:10:34.218Z,50.11
2019-03-25T14:13:02.210Z,54.34
2019-03-25T14:15:29.911Z,56.11
2019-03-25T14:18:07.379Z,56.14
2019-03-25T14:20:35.115Z,57.26
2019-03-25T14:23:02.707Z,55.95
2019-03-25T14:25:31.622Z,55.60
2019-03-25T14:27:59.844Z,54.46
2019-03-25T14:30:27.546Z,55.52
2019-03-25T14:32:55.327Z,54.51
2019-03-25T14:35:23.657Z,52.81
2019-03-25T14:37:52.431Z,53.56
2019-03-25T14:40:20.036Z,48.77
2019-03-25T14:42:48.151Z,45.16
2019-03-25T14:45:25.903Z,45.18
2019-03-25T14:47:45.391Z,42.68
2019-03-25T14:50:13.796Z,41.11
2019-03-25T14:52:41.524Z,42.63
2019-03-25T14:55:09.898Z,42.50
2019-03-25T14:57:37.947Z,42.48
2019-03-25T15:00:10.899Z,43.07
2019-03-25T15:02:38.611Z,41.39
2019-03-25T15:05:06.738Z,41.98
2019-03-25T15:07:34.441Z,44.39
2019-03-25T15:10:02.415Z,43.46
2019-03-25T15:12:31.055Z,41.06
2019-03-25T15:14:58.750Z,45.10
2019-03-25T15:17:26.774Z,47.26
2019-03-25T15:19:55.091Z,47.37
2019-03-25T15:22:22.925Z,48.50
2019-03-25T15:24:50.507Z,47.55
2019-03-25T15:27:18.253Z,49.60
2019-03-25T15:29:46.205Z,50.94
2019-03-25T15:32:13.867Z,51.29
2019-03-25T15:34:41.529Z,51.24
2019-03-25T15:37:09.307Z,47.30
2019-03-25T15:39:46.276Z,48.02
2019-03-25T15:42:06.552Z,48.19
2019-03-25T15:44:36.457Z,47.89
2019-03-25T15:47:04.034Z,47.59
2019-03-25T15:49:32.685Z,47.53
2019-03-25T15:52:00.339Z,47.33
2019-03-25T15:54:28.346Z,45.90
2019-03-25T15:56:56.955Z,44.35
2019-03-25T15:59:24.571Z,40.83
2019-03-25T16:01:52.350Z,38.43
2019-03-25T16:04:20.117Z,42.59
2019-03-25T16:06:57.667Z,42.43
2019-03-25T16:09:25.596Z,41.05
2019-03-25T16:11:53.811Z,42.03
2019-03-25T16:14:21.446Z,44.75
2019-03-25T16:16:49.424Z,44.94
2019-03-25T16:19:17.487Z,47.12
2019-03-25T16:21:46.388Z,49.59
2019-03-25T16:24:16.353Z,50.91
2019-03-25T16:26:45.791Z,52.63
2019-03-25T16:29:13.901Z,53.55
2019-03-25T16:31:41.983Z,54.25
2019-03-25T16:34:10.584Z,54.60
2019-03-25T16:36:38.232Z,55.24
2019-03-25T16:39:08.093Z,55.93
2019-03-25T16:41:37.712Z,55.98
2019-03-25T16:44:05.752Z,55.14
2019-03-25T16:46:35.197Z,54.49
2019-03-25T16:49:02.770Z,50.19
2019-03-25T16:51:30.400Z,46.57
2019-03-25T16:54:00.487Z,48.50
2019-03-25T16:56:28.048Z,49.11
2019-03-25T16:58:56.424Z,50.79
2019-03-25T17:01:24.246Z,52.44
2019-03-25T17:03:52.292Z,53.06
2019-03-25T17:06:20.005Z,53.90
2019-03-25T17:08:47.778Z,54.56
2019-03-25T17:11:15.848Z,54.89
2019-03-25T17:13:45.447Z,55.56
2019-03-25T17:16:13.541Z,56.46
2019-03-25T17:18:41.143Z,57.10
2019-03-25T17:21:09.253Z,57.74
2019-03-25T17:23:36.870Z,58.31
2019-03-25T17:26:06.782Z,58.81
2019-03-25T17:28:34.392Z,59.27
2019-03-25T17:31:03.170Z,60.07
2019-03-25T17:33:32.131Z,62.54
2019-03-25T17:35:59.863Z,64.05
2019-03-25T17:38:27.513Z,65.29
2019-03-25T17:40:56.565Z,64.87
2019-03-25T17:43:24.316Z,66.35
2019-03-25T17:45:52.214Z,66.34
2019-03-25T17:48:21.407Z,67.00
2019-03-25T17:50:49.143Z,67.52
2019-03-25T17:53:16.817Z,69.17
2019-03-25T17:55:44.397Z,68.28
2019-03-25T17:58:12.488Z,69.65
2019-03-25T18:01:05.729Z,69.84
2019-03-25T18:03:33.435Z,71.16
2019-03-25T18:06:01.063Z,72.75
2019-03-25T18:08:28.753Z,73.06
2019-03-25T18:10:56.317Z,74.00
2019-03-25T18:13:24.352Z,74.13
2019-03-25T18:15:52.169Z,74.75
2019-03-25T18:18:19.812Z,75.65
2019-03-25T18:20:49.007Z,76.10
2019-03-25T18:23:16.807Z,76.36
2019-03-25T18:25:47.076Z,75.20
2019-03-25T18:28:14.751Z,75.51
2019-03-25T18:30:42.442Z,76.25
2019-03-25T18:33:10.050Z,75.50
2019-03-25T18:35:41.153Z,75.36
2019-03-25T18:38:08.955Z,75.22
2019-03-25T18:40:37.644Z,74.88
2019-03-25T18:43:05.494Z,74.66
2019-03-25T18:45:33.312Z,75.10
2019-03-25T18:48:01.186Z,75.73
2019-03-25T18:50:29.440Z,75.88
2019-03-25T18:52:57.179Z,75.86
2019-03-25T18:55:26.237Z,75.99
2019-03-25T18:57:54.321Z,76.37
2019-03-25T19:00:32.429Z,76.55
2019-03-25T19:03:01.184Z,76.42
2019-03-25T19:05:29.505Z,76.78
2019-03-25T19:08:03.141Z,76.94
2019-03-25T19:10:30.909Z,77.22
2019-03-25T19:12:59.688Z,77.65
2019-03-25T19:15:27.347Z,77.90
2019-03-25T19:17:55.607Z,77.99
2019-03-25T19:20:23.659Z,78.14
2019-03-25T19:22:51.317Z,78.26
2019-03-25T19:25:18.945Z,78.28
2019-03-25T19:27:46.817Z,78.37
2019-03-25T19:30:15.607Z,78.26
2019-03-25T19:32:43.295Z,78.19
2019-03-25T19:35:11.559Z,78.09
2019-03-25T19:37:39.320Z,78.03
2019-03-25T19:40:10.855Z,77.88
2019-03-25T19:42:39.198Z,77.74
2019-03-25T19:45:07.245Z,77.72
2019-03-25T19:47:35.017Z,77.62
2019-03-25T19:50:03.047Z,77.33
2019-03-25T19:52:30.761Z,77.34
2019-03-25T19:54:59.782Z,77.64
2019-03-25T19:57:28.456Z,77.76
2019-03-25T19:59:56.484Z,77.92
2019-03-25T20:02:24.256Z,78.06
2019-03-25T20:04:52.061Z,77.70
2019-03-25T20:07:19.682Z,77.34
2019-03-25T20:09:47.682Z,77.20
2019-03-25T20:12:19.109Z,76.37
2019-03-25T20:14:47.889Z,75.54
2019-03-25T20:17:15.685Z,75.34
2019-03-25T20:19:43.453Z,75.10
2019-03-25T20:22:11.383Z,74.80
2019-03-25T20:24:39.515Z,75.14
2019-03-25T20:27:08.376Z,75.08
2019-03-25T20:29:36.029Z,74.64
2019-03-25T20:32:05.496Z,73.88
2019-03-25T20:34:33.204Z,73.35
2019-03-25T20:37:00.918Z,73.68
2019-03-25T20:39:29.007Z,73.79
2019-03-25T20:41:59.533Z,73.77
2019-03-25T20:44:29.103Z,73.98
2019-03-25T20:47:00.317Z,73.80
2019-03-25T20:49:30.083Z,73.50
2019-03-25T20:51:59.053Z,74.48
2019-03-25T20:54:26.936Z,74.88
2019-03-25T20:56:59.535Z,75.04
2019-03-25T20:59:27.614Z,75.14
2019-03-25T21:01:56.944Z,75.22
2019-03-25T21:04:24.570Z,75.30
2019-03-25T21:06:54.564Z,75.63
2019-03-25T21:09:22.126Z,76.01
2019-03-25T21:11:49.873Z,76.33
2019-03-25T21:14:17.823Z,76.67
2019-03-25T21:16:45.778Z,77.19
2019-03-25T21:19:15.585Z,77.71
2019-03-25T21:21:44.081Z,78.14
2019-03-25T21:24:12.886Z,78.48
2019-03-25T21:26:40.571Z,78.63
2019-03-25T21:29:08.726Z,78.31
2019-03-25T21:31:39.027Z,77.93
2019-03-25T21:34:06.157Z,77.57
2019-03-25T21:36:34.268Z,77.32
2019-03-25T21:39:02.509Z,77.31
2019-03-25T21:41:31.424Z,77.33
2019-03-25T21:43:59.627Z,77.55
2019-03-25T21:46:27.287Z,77.49
2019-03-25T21:48:55.016Z,77.39
2019-03-25T21:51:23.118Z,77.37
2019-03-25T21:53:53.303Z,77.43
2019-03-25T21:56:21.359Z,77.48
2019-03-25T21:58:55.957Z,77.67
2019-03-25T22:01:23.944Z,77.84
2019-03-25T22:03:51.725Z,78.08
2019-03-25T22:06:19.460Z,78.36
2019-03-25T22:08:47.571Z,78.47
2019-03-25T22:11:17.091Z,78.53
2019-03-25T22:13:44.752Z,78.46
2019-03-25T22:16:12.347Z,78.36
2019-03-25T22:18:39.947Z,78.11
2019-03-25T22:21:07.636Z,77.79
2019-03-25T22:23:35.312Z,77.68
2019-03-25T22:26:03.268Z,77.52
2019-03-25T22:28:30.895Z,77.06
2019-03-25T22:30:58.500Z,76.51
2019-03-25T22:33:26.705Z,76.34
2019-03-25T22:35:56.217Z,76.59
2019-03-25T22:38:23.799Z,76.25
2019-03-25T22:40:52.071Z,76.00
2019-03-25T22:43:19.719Z,76.18
2019-03-25T22:45:47.397Z,76.44
2019-03-25T22:48:15.134Z,75.92
2019-03-25T22:50:43.059Z,75.27
2019-03-25T22:53:10.685Z,74.72
2019-03-25T22:55:38.553Z,75.53
2019-03-25T22:58:06.309Z,75.79
2019-03-25T23:00:46.962Z,75.85
2019-03-25T23:03:15.181Z,75.81
2019-03-25T23:05:44.359Z,75.49
2019-03-25T23:08:12.196Z,74.60
2019-03-25T23:10:40.472Z,73.91
2019-03-25T23:13:08.391Z,73.94
2019-03-25T23:15:36.068Z,74.07
2019-03-25T23:18:04.456Z,74.32
2019-03-25T23:20:32.051Z,73.90
2019-03-25T23:22:59.874Z,73.91
2019-03-25T23:25:28.074Z,73.95
2019-03-25T23:27:55.716Z,74.31
2019-03-25T23:30:23.424Z,74.75
2019-03-25T23:32:51.254Z,74.95
2019-03-25T23:35:19.201Z,74.46
2019-03-25T23:37:47.840Z,74.33
2019-03-25T23:40:15.978Z,74.12
2019-03-25T23:42:43.562Z,74.39
2019-03-25T23:45:11.155Z,74.53
2019-03-25T23:47:39.168Z,74.62
2019-03-25T23:50:06.809Z,74.53
2019-03-25T23:52:35.017Z,73.96
2019-03-25T23:55:02.717Z,73.22
2019-03-25T23:57:31.505Z,72.98
2019-03-25T23:59:59.389Z,72.81
